Time;durP1;ratioP1;P1;durP2;ratioP2;P2;SDS_P1;SDS_P2;PMS_P1;PMS_P2;Temp;Humidity;BMP_temperature;BMP_pressure;BME280_temperature;BME280_humidity;BME280_pressure;Samples;Min_cycle;Max_cycle;Signal;HPM_P1;HPM_P2
2022/06/06 00:01:59;;;;;;;1.50;1.38;;;;;;;;;;5033835;28;20111;-39
2022/06/06 00:04:27;;;;;;;3.95;1.10;;;;;;;;;;5034740;28;20056;-39
2022/06/06 00:06:53;;;;;;;3.30;1.48;;;;;;;;;;5035065;28;20082;-39
2022/06/06 00:09:19;;;;;;;3.83;1.40;;;;;;;;;;5035122;28;20119;-39
2022/06/06 00:11:44;;;;;;;4.15;1.08;;;;;;;;;;5034935;28;20065;-38
2022/06/06 00:14:11;;;;;;;2.17;1.95;;;;;;;;;;5034881;28;20034;-39
2022/06/06 00:16:37;;;;;;;4.85;1.58;;;;;;;;;;5035129;28;20021;-39
2022/06/06 00:19:03;;;;;;;3.20;1.55;;;;;;;;;;5034705;28;20460;-38
2022/06/06 00:21:28;;;;;;;2.22;1.40;;;;;;;;;;5034747;28;20063;-39
2022/06/06 00:23:59;;;;;;;3.58;1.63;;;;;;;;;;5035136;28;20021;-39
2022/06/06 00:26:25;;;;;;;3.53;1.60;;;;;;;;;;5034636;28;20495;-38
2022/06/06 00:28:50;;;;;;;2.88;1.85;;;;;;;;;;5034618;28;20091;-39
2022/06/06 00:36:43;;;;;;;2.25;1.65;;;;;;;;;;5034919;28;20049;-40
2022/06/06 00:39:11;;;;;;;3.72;1.60;;;;;;;;;;5034501;28;20452;-40
2022/06/06 00:41:37;;;;;;;2.22;1.60;;;;;;;;;;5034493;28;20030;-39
2022/06/06 00:44:10;;;;;;;10.63;2.10;;;;;;;;;;5034561;28;20029;-39
2022/06/06 00:46:59;;;;;;;8.35;1.70;;;;;;;;;;5034610;28;20127;-39
2022/06/06 00:49:26;;;;;;;6.20;2.08;;;;;;;;;;5025949;28;20472;-39
2022/06/06 00:51:52;;;;;;;4.57;1.52;;;;;;;;;;5034285;28;20439;-39
2022/06/06 00:54:18;;;;;;;4.50;1.60;;;;;;;;;;5034118;28;20164;-38
2022/06/06 00:56:46;;;;;;;5.85;1.73;;;;;;;;;;5034519;28;20448;-39
2022/06/06 00:59:17;;;;;;;3.78;1.45;;;;;;;;;;5016536;28;20026;-39
2022/06/06 01:01:43;;;;;;;3.55;2.03;;;;;;;;;;5034069;28;20069;-39
2022/06/06 01:04:09;;;;;;;5.93;2.20;;;;;;;;;;5033683;28;20065;-39
2022/06/06 01:06:38;;;;;;;3.92;1.65;;;;;;;;;;5032809;28;20041;-39
2022/06/06 01:09:03;;;;;;;7.90;2.13;;;;;;;;;;5015981;28;20036;-39
2022/06/06 01:11:28;;;;;;;2.55;1.20;;;;;;;;;;5034040;28;20034;-39
2022/06/06 01:13:54;;;;;;;3.53;1.25;;;;;;;;;;5033921;28;20100;-38
2022/06/06 01:16:24;;;;;;;1.40;1.27;;;;;;;;;;5033554;28;20384;-39
2022/06/06 01:18:56;;;;;;;3.58;1.30;;;;;;;;;;5016064;28;20021;-39
2022/06/06 01:21:31;;;;;;;2.58;1.38;;;;;;;;;;5033578;28;20038;-39
2022/06/06 01:24:15;;;;;;;10.32;2.38;;;;;;;;;;5033911;28;20037;-39
2022/06/06 01:27:01;;;;;;;6.28;2.20;;;;;;;;;;5015786;28;20029;-38
2022/06/06 01:29:28;;;;;;;5.63;1.63;;;;;;;;;;5033741;28;20069;-39
2022/06/06 01:32:08;;;;;;;2.65;1.50;;;;;;;;;;5033409;28;20052;-39
2022/06/06 01:34:38;;;;;;;3.05;1.52;;;;;;;;;;5033724;28;20033;-39
2022/06/06 01:37:04;;;;;;;2.08;1.17;;;;;;;;;;5033321;28;20029;-39
2022/06/06 01:39:31;;;;;;;2.60;1.65;;;;;;;;;;5033307;28;20511;-39
2022/06/06 01:42:11;;;;;;;2.53;1.48;;;;;;;;;;5033533;28;20018;-39
2022/06/06 01:44:39;;;;;;;4.70;1.77;;;;;;;;;;5033644;28;20120;-39
2022/06/06 01:47:07;;;;;;;3.08;1.52;;;;;;;;;;5033430;28;20079;-39
2022/06/06 01:49:33;;;;;;;2.70;2.13;;;;;;;;;;5033170;28;20108;-39
2022/06/06 01:52:00;;;;;;;5.10;1.60;;;;;;;;;;5033324;28;20075;-39
2022/06/06 01:54:26;;;;;;;5.40;1.48;;;;;;;;;;5033243;28;20040;-39
2022/06/06 01:56:52;;;;;;;5.00;2.13;;;;;;;;;;5033302;28;20022;-39
2022/06/06 01:59:18;;;;;;;2.53;1.60;;;;;;;;;;5032829;28;20033;-39
2022/06/06 02:01:43;;;;;;;4.55;1.80;;;;;;;;;;5032983;28;20034;-39
2022/06/06 02:04:10;;;;;;;2.25;1.55;;;;;;;;;;5032573;28;20053;-38
2022/06/06 02:06:38;;;;;;;3.33;1.65;;;;;;;;;;5015153;28;20034;-38
2022/06/06 02:09:03;;;;;;;3.67;1.60;;;;;;;;;;5032692;28;20494;-39
2022/06/06 02:11:28;;;;;;;5.03;1.92;;;;;;;;;;5032857;28;20124;-39
2022/06/06 02:13:54;;;;;;;4.90;1.60;;;;;;;;;;5032709;28;20541;-38
2022/06/06 02:16:19;;;;;;;1.65;1.20;;;;;;;;;;5032191;28;20029;-39
2022/06/06 02:18:44;;;;;;;1.73;1.45;;;;;;;;;;5032594;28;20061;-39
2022/06/06 02:21:10;;;;;;;3.47;1.35;;;;;;;;;;5032532;28;20033;-39
2022/06/06 02:23:35;;;;;;;7.57;1.27;;;;;;;;;;5032783;28;20080;-39
2022/06/06 02:26:01;;;;;;;2.35;1.15;;;;;;;;;;5032444;28;20025;-39
2022/06/06 02:28:26;;;;;;;2.63;1.55;;;;;;;;;;5032607;28;20036;-38
2022/06/06 02:30:52;;;;;;;9.30;1.35;;;;;;;;;;5032677;28;20377;-39
2022/06/06 02:33:17;;;;;;;3.78;1.17;;;;;;;;;;5032256;28;20053;-39
2022/06/06 02:35:43;;;;;;;4.35;1.40;;;;;;;;;;5032325;28;20025;-39
2022/06/06 02:38:09;;;;;;;4.53;1.10;;;;;;;;;;5032216;28;20113;-38
2022/06/06 02:40:35;;;;;;;1.52;1.40;;;;;;;;;;5032473;28;20029;-39
2022/06/06 02:43:01;;;;;;;1.83;1.02;;;;;;;;;;5014408;28;20407;-38
2022/06/06 02:45:26;;;;;;;1.50;0.93;;;;;;;;;;5032012;28;20636;-39
2022/06/06 02:47:54;;;;;;;1.65;1.15;;;;;;;;;;5032004;28;20033;-39
2022/06/06 02:50:21;;;;;;;20.98;1.60;;;;;;;;;;5031915;28;20143;-39
2022/06/06 02:52:46;;;;;;;5.28;1.77;;;;;;;;;;5032231;28;20115;-39
2022/06/06 02:55:12;;;;;;;2.88;0.95;;;;;;;;;;5031868;28;20464;-39
2022/06/06 02:57:39;;;;;;;4.80;1.15;;;;;;;;;;5031918;28;20480;-39
2022/06/06 03:00:06;;;;;;;1.33;0.82;;;;;;;;;;5031961;28;20349;-39
2022/06/06 03:02:35;;;;;;;1.23;0.80;;;;;;;;;;5032108;28;20478;-39
2022/06/06 03:05:01;;;;;;;1.50;0.95;;;;;;;;;;5031852;28;20099;-38
2022/06/06 03:07:29;;;;;;;3.50;1.17;;;;;;;;;;5031885;28;20442;-39
2022/06/06 03:10:01;;;;;;;6.70;1.05;;;;;;;;;;5031966;28;20041;-38
2022/06/06 03:12:35;;;;;;;4.57;0.85;;;;;;;;;;5031457;28;20045;-39
2022/06/06 03:15:05;;;;;;;16.60;1.08;;;;;;;;;;5031908;28;20033;-39
2022/06/06 03:20:47;;;;;;;1.20;0.70;;;;;;;;;;5031479;28;20029;-39
2022/06/06 03:23:12;;;;;;;1.13;0.95;;;;;;;;;;5031525;28;20087;-39
2022/06/06 03:25:42;;;;;;;0.80;0.80;;;;;;;;;;5031771;28;20460;-39
2022/06/06 03:28:15;;;;;;;8.40;1.15;;;;;;;;;;5030630;28;20083;-39
2022/06/06 03:30:47;;;;;;;2.88;0.65;;;;;;;;;;5031550;28;20057;-39
2022/06/06 03:33:24;;;;;;;1.38;0.98;;;;;;;;;;5031540;28;20106;-39
2022/06/06 03:35:54;;;;;;;6.57;0.85;;;;;;;;;;5031559;28;20476;-38
2022/06/06 03:38:38;;;;;;;1.40;1.13;;;;;;;;;;5031445;28;20034;-38
2022/06/06 03:41:14;;;;;;;1.60;0.80;;;;;;;;;;5031210;28;20529;-39
2022/06/06 03:43:46;;;;;;;1.00;0.80;;;;;;;;;;5031257;28;20502;-39
2022/06/06 03:46:18;;;;;;;4.38;0.68;;;;;;;;;;5031385;28;20023;-39
2022/06/06 03:48:52;;;;;;;3.40;1.00;;;;;;;;;;5031257;28;20502;-39
2022/06/06 03:51:23;;;;;;;2.58;0.70;;;;;;;;;;5031038;28;20034;-39
2022/06/06 03:53:48;;;;;;;4.93;0.85;;;;;;;;;;5031135;28;20095;-38
2022/06/06 03:56:26;;;;;;;6.03;2.22;;;;;;;;;;5031020;28;20014;-38
2022/06/06 03:58:52;;;;;;;2.45;0.60;;;;;;;;;;5031015;28;20033;-39
2022/06/06 04:01:20;;;;;;;1.20;0.82;;;;;;;;;;5031224;28;20080;-38
2022/06/06 04:03:48;;;;;;;4.78;1.50;;;;;;;;;;5031065;28;20042;-38
2022/06/06 04:06:14;;;;;;;2.70;1.00;;;;;;;;;;5030930;28;20037;-39
2022/06/06 04:08:39;;;;;;;1.48;1.00;;;;;;;;;;5031024;28;20033;-39
2022/06/06 04:11:07;;;;;;;1.05;0.80;;;;;;;;;;5030890;28;20057;-39
2022/06/06 04:13:32;;;;;;;3.20;0.60;;;;;;;;;;5030981;28;20106;-38
2022/06/06 04:16:04;;;;;;;3.63;1.00;;;;;;;;;;5031296;28;20519;-38
2022/06/06 04:18:44;;;;;;;4.32;0.93;;;;;;;;;;5031220;28;20031;-39
2022/06/06 04:21:29;;;;;;;2.03;0.70;;;;;;;;;;5030875;28;20033;-39
2022/06/06 04:24:28;;;;;;;5.05;0.98;;;;;;;;;;5031226;28;20380;-39
2022/06/06 04:26:53;;;;;;;1.02;0.80;;;;;;;;;;4997346;28;20038;-39
2022/06/06 04:29:19;;;;;;;5.40;0.90;;;;;;;;;;5031090;28;20025;-38
2022/06/06 04:31:50;;;;;;;2.55;1.08;;;;;;;;;;5030945;28;20483;-38
2022/06/06 04:34:20;;;;;;;4.15;1.00;;;;;;;;;;5030986;28;20025;-39
2022/06/06 04:37:05;;;;;;;4.05;0.98;;;;;;;;;;5030784;28;20065;-38
2022/06/06 04:39:52;;;;;;;0.85;0.55;;;;;;;;;;5020925;28;20044;-39
2022/06/06 04:42:36;;;;;;;2.38;0.70;;;;;;;;;;5034597;28;20047;-39
2022/06/06 04:45:07;;;;;;;2.65;0.90;;;;;;;;;;5034308;28;20048;-38
2022/06/06 04:47:37;;;;;;;0.70;0.70;;;;;;;;;;5034401;28;20072;-44
2022/06/06 04:50:04;;;;;;;2.58;0.90;;;;;;;;;;5034246;28;20619;-39
2022/06/06 04:52:30;;;;;;;7.85;1.27;;;;;;;;;;5034208;28;20104;-38
2022/06/06 04:54:56;;;;;;;1.65;0.85;;;;;;;;;;5034187;28;20083;-39
2022/06/06 04:57:22;;;;;;;4.45;1.77;;;;;;;;;;5034358;28;20388;-38
2022/06/06 04:59:48;;;;;;;3.05;0.85;;;;;;;;;;5034100;28;20046;-39
2022/06/06 05:02:15;;;;;;;3.60;0.90;;;;;;;;;;5033838;28;20025;-38
2022/06/06 05:04:40;;;;;;;1.77;0.90;;;;;;;;;;5033895;28;20052;-38
2022/06/06 05:07:09;;;;;;;3.45;0.80;;;;;;;;;;5033912;28;20029;-39
2022/06/06 05:09:47;;;;;;;4.20;0.60;;;;;;;;;;5034166;28;20345;-39
2022/06/06 05:12:18;;;;;;;2.35;0.73;;;;;;;;;;5033941;28;20041;-39
2022/06/06 05:15:10;;;;;;;1.20;0.90;;;;;;;;;;5033815;28;20068;-38
2022/06/06 05:17:39;;;;;;;1.00;0.65;;;;;;;;;;5030737;28;20049;-38
2022/06/06 05:20:27;;;;;;;5.40;1.15;;;;;;;;;;5033808;28;20345;-39
2022/06/06 05:23:18;;;;;;;0.88;0.60;;;;;;;;;;5005301;28;20060;-38
2022/06/06 05:25:50;;;;;;;2.10;0.70;;;;;;;;;;5033545;28;20025;-38
2022/06/06 05:28:18;;;;;;;3.75;0.73;;;;;;;;;;5033788;28;20623;-39
2022/06/06 05:30:49;;;;;;;0.60;0.50;;;;;;;;;;5033434;28;20025;-39
2022/06/06 05:33:24;;;;;;;1.83;0.93;;;;;;;;;;5033620;28;20056;-39
2022/06/06 05:35:49;;;;;;;1.25;0.50;;;;;;;;;;5033486;28;20499;-39
2022/06/06 05:38:34;;;;;;;3.75;0.68;;;;;;;;;;5033242;28;20037;-38
2022/06/06 05:41:09;;;;;;;0.47;0.47;;;;;;;;;;5033281;28;20067;-39
2022/06/06 05:43:43;;;;;;;1.30;0.55;;;;;;;;;;5015705;28;20033;-38
2022/06/06 05:46:16;;;;;;;2.05;0.60;;;;;;;;;;5033388;28;20391;-39
2022/06/06 05:48:42;;;;;;;3.42;0.60;;;;;;;;;;5033271;28;20033;-39
2022/06/06 05:51:07;;;;;;;1.98;0.73;;;;;;;;;;5032254;28;20484;-38
2022/06/06 05:53:49;;;;;;;2.15;0.73;;;;;;;;;;5033071;28;20072;-38
2022/06/06 05:56:15;;;;;;;3.00;0.68;;;;;;;;;;5033047;28;20025;-38
2022/06/06 05:58:48;;;;;;;0.52;0.50;;;;;;;;;;5032977;28;20032;-38
2022/06/06 06:01:14;;;;;;;0.80;0.50;;;;;;;;;;5033101;28;20383;-38
2022/06/06 06:03:46;;;;;;;1.05;0.60;;;;;;;;;;5032747;28;20106;-38
2022/06/06 06:06:30;;;;;;;1.10;0.80;;;;;;;;;;5032759;28;20033;-38
2022/06/06 06:08:56;;;;;;;1.98;0.50;;;;;;;;;;5032849;28;20510;-39
2022/06/06 06:11:30;;;;;;;1.42;0.60;;;;;;;;;;5032623;28;20034;-38
2022/06/06 06:14:14;;;;;;;1.95;0.85;;;;;;;;;;5033026;28;20044;-38
2022/06/06 06:16:45;;;;;;;0.80;0.70;;;;;;;;;;5032692;28;20392;-38
2022/06/06 06:19:20;;;;;;;0.68;0.32;;;;;;;;;;5014937;28;20029;-39
2022/06/06 06:21:50;;;;;;;1.13;0.80;;;;;;;;;;5032808;28;20076;-38
2022/06/06 06:24:24;;;;;;;1.45;0.60;;;;;;;;;;5032579;28;20030;-39
2022/06/06 06:26:52;;;;;;;0.63;0.43;;;;;;;;;;5032595;28;20065;-39
2022/06/06 06:29:17;;;;;;;4.47;1.02;;;;;;;;;;5032239;28;20032;-38
2022/06/06 06:31:52;;;;;;;0.98;0.47;;;;;;;;;;5032583;28;20395;-39
2022/06/06 06:34:23;;;;;;;0.43;0.30;;;;;;;;;;5032347;28;20128;-39
2022/06/06 06:36:52;;;;;;;2.10;0.68;;;;;;;;;;5032223;28;20025;-39
2022/06/06 06:39:24;;;;;;;1.38;0.60;;;;;;;;;;5014594;28;20032;-38
2022/06/06 06:41:56;;;;;;;2.03;0.32;;;;;;;;;;5032134;28;20116;-39
2022/06/06 06:44:26;;;;;;;0.68;0.40;;;;;;;;;;5032353;28;20045;-38
2022/06/06 06:46:57;;;;;;;0.57;0.30;;;;;;;;;;5032093;28;20025;-39
2022/06/06 06:49:22;;;;;;;1.05;0.50;;;;;;;;;;5032201;28;20112;-38
2022/06/06 06:51:48;;;;;;;0.68;0.38;;;;;;;;;;5031968;28;20166;-38
2022/06/06 06:54:26;;;;;;;1.02;0.40;;;;;;;;;;5031972;28;20028;-39
2022/06/06 06:56:55;;;;;;;0.70;0.52;;;;;;;;;;5031928;28;20029;-38
2022/06/06 06:59:30;;;;;;;0.80;0.43;;;;;;;;;;5032043;28;20108;-38
2022/06/06 07:11:04;;;;;;;0.95;0.40;;;;;;;;;;5031810;28;20039;-39
2022/06/06 07:13:33;;;;;;;5.53;1.52;;;;;;;;;;5031484;28;20037;-38
2022/06/06 07:16:04;;;;;;;0.68;0.30;;;;;;;;;;5014244;28;20017;-39
2022/06/06 07:18:32;;;;;;;1.15;0.43;;;;;;;;;;5031417;28;20025;-39
2022/06/06 07:20:59;;;;;;;0.52;0.20;;;;;;;;;;5031582;28;20033;-38
2022/06/06 07:23:25;;;;;;;0.88;0.20;;;;;;;;;;5031682;28;20029;-39
2022/06/06 07:25:51;;;;;;;0.50;0.40;;;;;;;;;;5031506;28;20094;-38
2022/06/06 07:28:18;;;;;;;1.23;0.30;;;;;;;;;;5031308;28;20026;-38
2022/06/06 07:30:53;;;;;;;0.65;0.40;;;;;;;;;;5031388;28;20018;-38
2022/06/06 07:33:27;;;;;;;1.75;0.70;;;;;;;;;;5031115;28;20038;-38
2022/06/06 07:35:59;;;;;;;0.50;0.40;;;;;;;;;;5031323;28;20030;-38
2022/06/06 07:38:40;;;;;;;0.15;0.15;;;;;;;;;;5031502;28;20388;-44
2022/06/06 07:41:12;;;;;;;2.92;0.50;;;;;;;;;;5031260;28;20555;-38
2022/06/06 07:43:51;;;;;;;0.30;0.30;;;;;;;;;;5031612;28;20130;-39
2022/06/06 07:46:28;;;;;;;0.38;0.30;;;;;;;;;;5031166;28;20491;-39
2022/06/06 07:48:57;;;;;;;0.90;0.35;;;;;;;;;;5031175;28;20510;-39
2022/06/06 07:51:35;;;;;;;0.70;0.30;;;;;;;;;;5031313;28;20025;-39
2022/06/06 07:54:00;;;;;;;3.30;0.50;;;;;;;;;;5031095;28;20124;-39
2022/06/06 07:56:40;;;;;;;0.98;0.15;;;;;;;;;;5031419;28;20117;-39
2022/06/06 07:59:25;;;;;;;0.30;0.20;;;;;;;;;;5031018;28;20037;-38
2022/06/06 08:01:50;;;;;;;1.20;0.20;;;;;;;;;;5031376;28;20037;-39
2022/06/06 08:04:21;;;;;;;0.40;0.30;;;;;;;;;;5030876;28;20384;-39
2022/06/06 08:06:53;;;;;;;1.25;0.30;;;;;;;;;;5031066;28;20501;-38
2022/06/06 08:09:37;;;;;;;1.13;0.80;;;;;;;;;;5030848;28;20057;-39
2022/06/06 08:12:15;;;;;;;0.40;0.30;;;;;;;;;;5031033;28;20036;-38
2022/06/06 08:14:40;;;;;;;0.30;0.30;;;;;;;;;;5031918;28;20025;-38
2022/06/06 08:17:12;;;;;;;1.23;0.60;;;;;;;;;;5035236;28;20024;-39
2022/06/06 08:19:48;;;;;;;1.17;0.43;;;;;;;;;;5034786;28;20052;-39
2022/06/06 08:22:15;;;;;;;0.50;0.35;;;;;;;;;;5034707;28;20029;-38
2022/06/06 08:24:42;;;;;;;1.52;0.50;;;;;;;;;;5017133;28;20048;-38
2022/06/06 08:27:10;;;;;;;0.20;0.20;;;;;;;;;;5034830;28;20033;-39
2022/06/06 08:29:38;;;;;;;3.03;0.50;;;;;;;;;;5034850;28;20108;-38
2022/06/06 08:32:05;;;;;;;0.80;0.20;;;;;;;;;;5034900;28;20125;-39
2022/06/06 08:34:31;;;;;;;0.95;0.45;;;;;;;;;;5034856;28;20030;-39
2022/06/06 08:37:00;;;;;;;1.45;0.32;;;;;;;;;;5034563;28;20419;-39
2022/06/06 08:39:44;;;;;;;0.43;0.20;;;;;;;;;;5034510;28;20446;-39
2022/06/06 08:42:12;;;;;;;1.17;0.77;;;;;;;;;;5034393;28;20133;-38
2022/06/06 08:44:54;;;;;;;0.45;0.35;;;;;;;;;;5016600;28;20356;-39
2022/06/06 08:47:39;;;;;;;0.30;0.20;;;;;;;;;;5016717;28;20048;-38
2022/06/06 08:53:20;;;;;;;0.70;0.40;;;;;;;;;;5034407;28;20107;-39
2022/06/06 08:55:52;;;;;;;0.80;0.35;;;;;;;;;;5034556;28;20026;-39
2022/06/06 08:58:36;;;;;;;0.50;0.30;;;;;;;;;;5033991;28;20026;-39
2022/06/06 09:01:20;;;;;;;0.43;0.40;;;;;;;;;;5034109;28;20033;-40
2022/06/06 09:04:01;;;;;;;0.35;0.30;;;;;;;;;;5033965;28;20088;-39
2022/06/06 09:06:26;;;;;;;0.22;0.20;;;;;;;;;;5033931;28;20033;-39
2022/06/06 09:08:51;;;;;;;0.38;0.20;;;;;;;;;;5034197;28;20026;-38
2022/06/06 09:11:36;;;;;;;1.25;0.40;;;;;;;;;;5033969;28;20481;-39
2022/06/06 09:14:04;;;;;;;0.20;0.20;;;;;;;;;;5034163;28;20376;-39
2022/06/06 09:16:44;;;;;;;0.73;0.52;;;;;;;;;;5033748;28;20112;-39
2022/06/06 09:19:20;;;;;;;0.77;0.28;;;;;;;;;;5015994;28;20033;-39
2022/06/06 09:21:46;;;;;;;0.20;0.20;;;;;;;;;;5033790;28;20052;-39
2022/06/06 09:24:20;;;;;;;0.30;0.30;;;;;;;;;;5033983;28;20026;-39
2022/06/06 09:27:04;;;;;;;0.80;0.35;;;;;;;;;;5032742;28;20033;-38
2022/06/06 09:29:48;;;;;;;2.15;0.70;;;;;;;;;;5033721;28;20108;-39
2022/06/06 09:32:32;;;;;;;1.08;0.40;;;;;;;;;;5033403;28;20044;-38
2022/06/06 09:34:57;;;;;;;1.08;0.60;;;;;;;;;;5033772;28;20033;-38
2022/06/06 09:37:29;;;;;;;0.90;0.40;;;;;;;;;;5033653;28;20359;-39
2022/06/06 09:39:57;;;;;;;0.20;0.20;;;;;;;;;;5033279;28;20100;-39
2022/06/06 09:42:25;;;;;;;0.70;0.50;;;;;;;;;;5033355;28;20013;-38
2022/06/06 09:45:03;;;;;;;0.20;0.20;;;;;;;;;;5033250;28;20030;-38
2022/06/06 09:47:31;;;;;;;0.65;0.20;;;;;;;;;;5033518;28;20029;-38
2022/06/06 09:50:00;;;;;;;0.20;0.20;;;;;;;;;;5015501;28;20471;-39
2022/06/06 09:52:44;;;;;;;0.90;0.30;;;;;;;;;;5033362;28;20095;-39
2022/06/06 10:01:33;;;;;;;3.08;0.73;;;;;;;;;;5033192;28;20120;-39
2022/06/06 10:04:05;;;;;;;0.45;0.28;;;;;;;;;;5032836;28;20487;-39
2022/06/06 10:06:52;;;;;;;0.20;0.20;;;;;;;;;;5032876;28;20141;-39
2022/06/06 10:09:24;;;;;;;0.30;0.30;;;;;;;;;;5032988;28;20055;-38
2022/06/06 10:12:08;;;;;;;0.70;0.57;;;;;;;;;;5032803;28;20037;-38
2022/06/06 10:14:34;;;;;;;0.30;0.30;;;;;;;;;;5032906;28;20045;-39
2022/06/06 10:17:18;;;;;;;0.85;0.40;;;;;;;;;;5032975;28;20018;-38
2022/06/06 10:19:47;;;;;;;0.93;0.65;;;;;;;;;;5032672;28;20025;-38
2022/06/06 10:22:22;;;;;;;1.08;0.40;;;;;;;;;;5014778;28;20079;-38
2022/06/06 10:24:54;;;;;;;0.40;0.30;;;;;;;;;;5014792;28;20136;-38
2022/06/06 10:27:38;;;;;;;0.20;0.20;;;;;;;;;;5032585;28;20379;-39
2022/06/06 10:30:16;;;;;;;1.10;0.40;;;;;;;;;;5032453;28;20033;-39
2022/06/06 10:32:48;;;;;;;0.55;0.40;;;;;;;;;;5032344;28;20041;-39
2022/06/06 10:35:16;;;;;;;0.47;0.30;;;;;;;;;;5032428;28;20048;-39
2022/06/06 10:37:45;;;;;;;0.43;0.40;;;;;;;;;;5032056;28;20032;-39
2022/06/06 10:40:16;;;;;;;0.30;0.20;;;;;;;;;;5031077;28;20029;-39
2022/06/06 10:42:53;;;;;;;0.30;0.30;;;;;;;;;;5032239;28;20033;-40
2022/06/06 10:45:30;;;;;;;0.88;0.38;;;;;;;;;;5032324;28;20375;-39
2022/06/06 10:48:15;;;;;;;0.47;0.30;;;;;;;;;;5032106;28;20025;-38
2022/06/06 10:51:36;;;;;;;0.93;0.65;;;;;;;;;;5032102;28;20033;-39
2022/06/06 10:53:47;;;;;;;1.10;0.40;;;;;;;;;;5031837;28;20116;-39
2022/06/06 10:56:39;;;;;;;0.50;0.32;;;;;;;;;;5031913;28;20033;-39
2022/06/06 10:59:15;;;;;;;5.32;0.45;;;;;;;;;;5028785;28;20057;-39
2022/06/06 11:01:50;;;;;;;0.45;0.45;;;;;;;;;;5031958;28;20021;-39
2022/06/06 11:04:16;;;;;;;0.63;0.40;;;;;;;;;;5031474;28;20050;-39
2022/06/06 11:07:00;;;;;;;0.10;0.10;;;;;;;;;;5031698;28;20040;-39
2022/06/06 11:09:45;;;;;;;0.25;0.25;;;;;;;;;;5031634;28;20112;-38
2022/06/06 11:12:17;;;;;;;0.65;0.50;;;;;;;;;;5020686;28;20415;-39
2022/06/06 11:14:46;;;;;;;0.50;0.43;;;;;;;;;;5031882;28;20033;-39
2022/06/06 11:17:31;;;;;;;0.77;0.20;;;;;;;;;;5031821;28;20040;-42
2022/06/06 11:20:15;;;;;;;0.25;0.20;;;;;;;;;;5032145;28;20100;-39
2022/06/06 11:22:42;;;;;;;0.30;0.20;;;;;;;;;;5031585;28;20040;-39
2022/06/06 11:25:11;;;;;;;1.02;0.38;;;;;;;;;;5031574;28;20478;-38
2022/06/06 11:27:43;;;;;;;0.85;0.50;;;;;;;;;;5031339;28;20479;-38
2022/06/06 11:30:27;;;;;;;2.25;0.40;;;;;;;;;;5031473;28;20030;-38
2022/06/06 11:33:05;;;;;;;0.90;0.40;;;;;;;;;;5031297;28;20046;-39
2022/06/06 11:35:46;;;;;;;0.60;0.60;;;;;;;;;;5031262;28;20167;-38
2022/06/06 11:38:17;;;;;;;1.13;0.38;;;;;;;;;;5031250;28;20112;-39
2022/06/06 11:40:52;;;;;;;3.72;0.30;;;;;;;;;;5031292;28;20033;-39
2022/06/06 11:43:32;;;;;;;2.83;0.68;;;;;;;;;;5013926;28;20447;-39
2022/06/06 11:46:06;;;;;;;1.85;0.40;;;;;;;;;;5031250;28;20033;-38
2022/06/06 11:48:51;;;;;;;0.52;0.40;;;;;;;;;;5030845;28;20041;-39
2022/06/06 11:51:23;;;;;;;0.32;0.25;;;;;;;;;;5031196;28;20045;-39
2022/06/06 11:53:48;;;;;;;1.00;0.40;;;;;;;;;;5031331;28;20125;-39
2022/06/06 11:56:35;;;;;;;0.50;0.47;;;;;;;;;;5031282;28;20104;-39
2022/06/06 11:59:09;;;;;;;0.40;0.38;;;;;;;;;;5031331;28;20034;-39
2022/06/06 12:01:53;;;;;;;3.85;0.73;;;;;;;;;;5031116;28;20053;-39
2022/06/06 12:04:42;;;;;;;1.00;0.32;;;;;;;;;;5030751;28;20045;-39
2022/06/06 12:07:26;;;;;;;2.05;0.45;;;;;;;;;;5022937;28;20471;-39
2022/06/06 12:10:01;;;;;;;1.75;0.43;;;;;;;;;;5031058;28;20021;-38
2022/06/06 12:12:46;;;;;;;2.58;0.60;;;;;;;;;;5030772;28;20048;-39
2022/06/06 12:15:18;;;;;;;0.60;0.43;;;;;;;;;;5030399;28;20128;-40
2022/06/06 12:18:02;;;;;;;0.63;0.40;;;;;;;;;;5030953;28;20029;-39
2022/06/06 12:20:47;;;;;;;0.55;0.20;;;;;;;;;;5030903;28;20044;-39
2022/06/06 12:23:18;;;;;;;0.88;0.45;;;;;;;;;;5030936;28;20037;-39
2022/06/06 12:25:55;;;;;;;0.65;0.30;;;;;;;;;;5030823;28;20040;-39
2022/06/06 12:28:26;;;;;;;1.48;0.65;;;;;;;;;;5030841;28;20042;-39
2022/06/06 12:30:54;;;;;;;1.02;0.52;;;;;;;;;;5030782;28;20037;-39
2022/06/06 12:33:32;;;;;;;0.85;0.65;;;;;;;;;;5030869;28;20597;-39
2022/06/06 12:36:14;;;;;;;3.55;0.40;;;;;;;;;;5030871;28;20162;-39
2022/06/06 12:38:47;;;;;;;3.25;0.50;;;;;;;;;;5031026;28;20034;-39
2022/06/06 12:41:29;;;;;;;0.40;0.30;;;;;;;;;;5030702;28;20040;-39
2022/06/06 12:44:04;;;;;;;0.80;0.30;;;;;;;;;;5030802;28;20037;-39
2022/06/06 12:46:39;;;;;;;0.20;0.20;;;;;;;;;;5030862;28;20029;-39
2022/06/06 12:49:05;;;;;;;0.50;0.50;;;;;;;;;;5030586;28;20025;-39
2022/06/06 12:51:33;;;;;;;0.35;0.30;;;;;;;;;;5030817;28;20022;-39
2022/06/06 12:53:59;;;;;;;0.57;0.57;;;;;;;;;;5030600;28;20104;-39
2022/06/06 12:56:28;;;;;;;0.55;0.38;;;;;;;;;;5030871;28;20444;-39
2022/06/06 12:59:13;;;;;;;0.70;0.45;;;;;;;;;;5030474;28;20048;-39
2022/06/06 13:01:39;;;;;;;0.50;0.45;;;;;;;;;;5033044;28;20094;-39
2022/06/06 13:04:07;;;;;;;0.30;0.30;;;;;;;;;;5033954;28;20045;-39
2022/06/06 13:06:52;;;;;;;3.15;0.55;;;;;;;;;;5016211;28;20041;-39
2022/06/06 13:09:40;;;;;;;0.50;0.47;;;;;;;;;;5033854;28;20033;-39
2022/06/06 13:12:25;;;;;;;3.60;0.57;;;;;;;;;;5005545;28;20053;-39
2022/06/06 13:14:51;;;;;;;0.40;0.40;;;;;;;;;;5033949;28;20025;-39
2022/06/06 13:17:17;;;;;;;1.80;0.30;;;;;;;;;;5033905;28;20487;-39
2022/06/06 13:19:46;;;;;;;0.70;0.38;;;;;;;;;;5032640;28;20030;-40
2022/06/06 13:22:30;;;;;;;2.67;0.50;;;;;;;;;;5033743;28;20044;-39
2022/06/06 13:25:17;;;;;;;0.52;0.50;;;;;;;;;;5033767;28;20037;-39
2022/06/06 13:27:55;;;;;;;0.20;0.20;;;;;;;;;;5033607;28;20602;-40
2022/06/06 13:30:40;;;;;;;0.40;0.25;;;;;;;;;;5033859;28;20048;-39
2022/06/06 13:33:09;;;;;;;1.30;0.30;;;;;;;;;;5033630;28;20049;-40
2022/06/06 13:35:49;;;;;;;1.33;0.40;;;;;;;;;;5033381;28;20460;-40
2022/06/06 13:38:24;;;;;;;0.30;0.30;;;;;;;;;;5033415;28;20116;-40
2022/06/06 13:41:20;;;;;;;0.80;0.40;;;;;;;;;;5033575;28;20379;-39
2022/06/06 13:43:53;;;;;;;0.60;0.32;;;;;;;;;;4979567;28;20409;-40
2022/06/06 13:46:39;;;;;;;2.80;0.40;;;;;;;;;;5033190;28;20098;-39
2022/06/06 13:49:14;;;;;;;1.58;0.60;;;;;;;;;;5033142;28;20029;-39
2022/06/06 13:51:48;;;;;;;0.20;0.20;;;;;;;;;;5033491;28;20028;-39
2022/06/06 13:54:29;;;;;;;0.63;0.40;;;;;;;;;;5033126;28;20033;-43
2022/06/06 13:57:15;;;;;;;2.08;0.47;;;;;;;;;;5033372;28;20395;-40
2022/06/06 13:59:47;;;;;;;0.40;0.40;;;;;;;;;;5033133;28;20112;-39
2022/06/06 14:02:25;;;;;;;0.45;0.38;;;;;;;;;;5033098;28;20022;-39
2022/06/06 14:05:02;;;;;;;0.73;0.43;;;;;;;;;;5032886;28;20049;-40
2022/06/06 14:07:43;;;;;;;0.60;0.30;;;;;;;;;;5032788;28;20038;-40
2022/06/06 14:10:10;;;;;;;0.20;0.20;;;;;;;;;;5033192;28;20045;-39
2022/06/06 14:12:54;;;;;;;4.63;0.40;;;;;;;;;;5032058;28;20032;-39
2022/06/06 14:15:21;;;;;;;0.20;0.20;;;;;;;;;;5032676;28;20497;-40
2022/06/06 14:17:52;;;;;;;0.45;0.20;;;;;;;;;;5032985;28;20017;-40
2022/06/06 14:20:25;;;;;;;0.43;0.30;;;;;;;;;;5032856;28;20399;-40
2022/06/06 14:22:50;;;;;;;0.82;0.35;;;;;;;;;;5032588;28;20025;-40
2022/06/06 14:25:16;;;;;;;26.52;1.52;;;;;;;;;;5032538;28;20044;-40
2022/06/06 14:27:43;;;;;;;0.98;0.55;;;;;;;;;;5032437;28;20060;-40
2022/06/06 14:30:12;;;;;;;1.80;0.38;;;;;;;;;;5014771;28;20033;-39
2022/06/06 14:32:57;;;;;;;0.25;0.25;;;;;;;;;;5032444;28;20399;-40
2022/06/06 14:35:26;;;;;;;0.85;0.43;;;;;;;;;;5032344;28;20029;-39
2022/06/06 14:38:08;;;;;;;0.50;0.30;;;;;;;;;;5032253;28;20490;-39
2022/06/06 14:40:58;;;;;;;2.00;0.30;;;;;;;;;;5032502;28;20859;-40
2022/06/06 14:43:24;;;;;;;0.82;0.40;;;;;;;;;;5024862;28;20121;-39
2022/06/06 14:45:59;;;;;;;9.63;0.70;;;;;;;;;;5032399;28;20428;-40
2022/06/06 14:48:35;;;;;;;1.42;0.40;;;;;;;;;;5032230;28;20116;-40
2022/06/06 14:51:02;;;;;;;0.40;0.22;;;;;;;;;;5032323;28;20030;-39
2022/06/06 14:53:33;;;;;;;0.30;0.30;;;;;;;;;;5031906;28;20029;-40
2022/06/06 14:56:08;;;;;;;5.03;0.73;;;;;;;;;;5032045;28;20068;-40
2022/06/06 14:58:34;;;;;;;0.90;0.52;;;;;;;;;;5031925;28;20618;-40
2022/06/06 15:01:01;;;;;;;0.70;0.40;;;;;;;;;;5014188;28;20021;-40
2022/06/06 15:03:34;;;;;;;0.57;0.50;;;;;;;;;;5031810;28;20435;-40
2022/06/06 15:06:11;;;;;;;3.15;0.60;;;;;;;;;;5031956;28;20419;-39
2022/06/06 15:08:56;;;;;;;0.52;0.40;;;;;;;;;;5031862;28;20034;-39
2022/06/06 15:11:26;;;;;;;0.30;0.30;;;;;;;;;;5000752;28;20050;-40
2022/06/06 15:13:56;;;;;;;1.30;0.45;;;;;;;;;;5031784;28;20127;-40
2022/06/06 15:16:23;;;;;;;1.40;0.65;;;;;;;;;;5031452;28;20064;-39
2022/06/06 15:18:56;;;;;;;3.65;0.55;;;;;;;;;;5031602;28;20029;-40
2022/06/06 15:21:23;;;;;;;1.38;0.50;;;;;;;;;;5031796;28;20067;-39
2022/06/06 15:23:55;;;;;;;2.90;1.25;;;;;;;;;;5030942;28;20017;-39
2022/06/06 15:26:32;;;;;;;0.40;0.30;;;;;;;;;;5031670;28;20038;-39
2022/06/06 15:29:02;;;;;;;1.98;0.30;;;;;;;;;;5013764;28;20585;-39
2022/06/06 15:31:28;;;;;;;0.30;0.30;;;;;;;;;;5031334;28;20033;-39
2022/06/06 15:34:03;;;;;;;0.52;0.40;;;;;;;;;;5031739;28;20083;-40
2022/06/06 15:36:49;;;;;;;2.05;0.30;;;;;;;;;;5031239;28;20033;-39
2022/06/06 15:39:30;;;;;;;0.52;0.40;;;;;;;;;;5030863;28;20083;-40
2022/06/06 15:42:21;;;;;;;0.73;0.45;;;;;;;;;;5031279;28;20029;-39
2022/06/06 15:44:57;;;;;;;0.70;0.30;;;;;;;;;;5031473;28;20033;-40